Time;durP1;ratioP1;P1;durP2;ratioP2;P2;SDS_P1;SDS_P2;PMS_P1;PMS_P2;Temp;Humidity;BMP_temperature;BMP_pressure;BME280_temperature;BME280_humidity;BME280_pressure;Samples;Min_cycle;Max_cycle;Signal;HPM_P1;HPM_P2
2023/12/28 00:00:47;;;;;;;4.97;2.20;;;;;;;3.26;75.07;100838.36;1748378;82;21005;-69
2023/12/28 00:03:16;;;;;;;8.63;3.02;;;;;;;3.27;75.20;100831.45;1759100;81;21089;-70
2023/12/28 00:05:45;;;;;;;12.28;4.55;;;;;;;3.27;75.42;100836.87;1748623;82;21002;-69
2023/12/28 00:08:13;;;;;;;7.33;2.90;;;;;;;3.27;75.51;100849.05;1759100;80;21025;-68
2023/12/28 00:10:42;;;;;;;7.08;2.72;;;;;;;3.25;75.69;100844.73;1748754;82;21501;-67
2023/12/28 00:13:10;;;;;;;6.12;2.60;;;;;;;3.26;75.65;100844.63;1759233;81;21033;-70
2023/12/28 00:15:39;;;;;;;7.58;2.72;;;;;;;3.22;75.82;100846.38;1748491;82;21034;-67
2023/12/28 00:18:07;;;;;;;8.43;2.90;;;;;;;3.19;75.83;100851.57;1748435;82;21002;-67
2023/12/28 00:20:36;;;;;;;10.93;2.70;;;;;;;3.19;75.94;100851.57;1759295;81;21076;-67
2023/12/28 00:23:05;;;;;;;7.35;2.42;;;;;;;3.17;76.10;100856.27;1759183;80;21021;-69
2023/12/28 00:25:33;;;;;;;6.58;2.62;;;;;;;3.16;76.11;100868.09;1759110;81;21017;-69
2023/12/28 00:28:02;;;;;;;8.38;3.30;;;;;;;3.16;76.31;100864.03;1748345;82;21502;-69
2023/12/28 00:30:32;;;;;;;6.72;2.45;;;;;;;3.15;76.51;100856.91;1748471;81;21030;-69
2023/12/28 00:33:01;;;;;;;9.43;2.67;;;;;;;3.14;76.61;100864.17;1759391;81;20986;-69
2023/12/28 00:35:30;;;;;;;8.75;3.10;;;;;;;3.15;76.69;100860.97;1743822;82;21061;-69
2023/12/28 00:37:58;;;;;;;7.12;3.00;;;;;;;3.16;76.67;100851.84;1748443;82;21010;-68
2023/12/28 00:40:27;;;;;;;9.08;3.00;;;;;;;3.15;76.66;100857.76;1748413;81;21433;-67
2023/12/28 00:42:56;;;;;;;6.25;2.33;;;;;;;3.15;76.61;100850.13;1748413;81;21042;-68
2023/12/28 00:45:25;;;;;;;7.10;2.70;;;;;;;3.13;76.69;100852.98;1759390;81;21096;-69
2023/12/28 00:47:56;;;;;;;6.12;2.25;;;;;;;3.12;76.65;100855.83;1748567;82;21026;-70
2023/12/28 00:50:32;;;;;;;8.85;2.35;;;;;;;3.11;76.69;100865.80;1748435;82;21001;-69
2023/12/28 00:52:56;;;;;;;6.50;1.90;;;;;;;3.08;76.63;100859.31;1748343;81;21014;-70
2023/12/28 00:55:25;;;;;;;5.47;2.33;;;;;;;3.09;76.64;100864.22;1748492;82;20998;-71
2023/12/28 00:57:54;;;;;;;7.00;2.27;;;;;;;3.09;76.70;100870.99;1748399;81;21469;-68
2023/12/28 01:00:23;;;;;;;5.90;2.67;;;;;;;3.06;76.63;100872.13;1759137;80;21060;-69
2023/12/28 01:02:51;;;;;;;7.85;2.50;;;;;;;3.07;76.73;100874.34;1768836;81;21057;-69
2023/12/28 01:05:21;;;;;;;6.58;2.87;;;;;;;3.06;76.46;100865.86;1759317;81;21026;-69
2023/12/28 01:07:50;;;;;;;5.97;2.40;;;;;;;3.05;76.38;100863.65;1748608;81;21017;-69
2023/12/28 01:10:19;;;;;;;8.15;2.52;;;;;;;3.07;76.12;100854.89;1748441;82;20982;-67
2023/12/28 01:12:47;;;;;;;6.85;2.35;;;;;;;3.09;75.85;100851.55;1748628;82;21017;-68
2023/12/28 01:15:17;;;;;;;6.70;2.52;;;;;;;3.10;75.65;100855.11;1748678;81;20994;-69
2023/12/28 01:17:47;;;;;;;5.42;2.45;;;;;;;3.10;75.49;100849.70;1759128;81;21037;-69
2023/12/28 01:20:16;;;;;;;4.10;2.27;;;;;;;3.07;75.19;100854.03;1748431;81;20967;-67
2023/12/28 01:22:44;;;;;;;5.75;2.50;;;;;;;3.06;75.23;100849.61;1748411;82;21025;-70
2023/12/28 01:25:13;;;;;;;5.87;2.27;;;;;;;3.07;75.11;100852.68;1759264;80;21006;-69
2023/12/28 01:27:43;;;;;;;8.35;2.65;;;;;;;3.09;74.77;100849.34;1748431;81;21512;-69
2023/12/28 01:30:12;;;;;;;5.78;2.20;;;;;;;3.10;74.31;100850.55;1748573;82;21034;-68
2023/12/28 01:32:41;;;;;;;6.10;2.50;;;;;;;3.09;74.00;100857.46;1759222;81;21029;-69
2023/12/28 01:35:10;;;;;;;6.20;2.37;;;;;;;3.09;73.99;100846.13;1748624;82;21002;-69
2023/12/28 01:37:38;;;;;;;4.62;1.80;;;;;;;3.10;73.48;100835.66;1748823;81;20975;-70
2023/12/28 01:40:09;;;;;;;5.03;1.85;;;;;;;3.08;73.08;100839.50;1748645;82;20994;-69
2023/12/28 01:42:38;;;;;;;4.80;2.10;;;;;;;3.07;73.07;100858.09;1759269;81;21150;-68
2023/12/28 01:45:08;;;;;;;5.83;2.00;;;;;;;3.06;72.96;100845.55;1759116;81;21446;-68
2023/12/28 01:47:36;;;;;;;5.83;1.95;;;;;;;3.06;72.79;100839.64;1748522;81;21224;-69
2023/12/28 01:50:07;;;;;;;8.45;2.00;;;;;;;3.07;72.78;100859.45;1759009;80;20993;-68
2023/12/28 01:52:37;;;;;;;4.12;2.10;;;;;;;3.08;72.26;100862.52;1759307;80;21017;-67
2023/12/28 01:55:09;;;;;;;5.62;2.15;;;;;;;3.08;72.33;100857.10;1759063;80;21006;-69
2023/12/28 01:57:37;;;;;;;6.55;2.42;;;;;;;3.08;72.31;100862.52;1748544;82;21454;-71
2023/12/28 02:00:07;;;;;;;4.62;2.37;;;;;;;3.08;72.37;100865.22;1758961;80;21049;-69
2023/12/28 02:02:42;;;;;;;4.87;2.30;;;;;;;3.10;72.48;100875.41;1759326;81;21045;-68
2023/12/28 02:05:14;;;;;;;6.30;2.33;;;;;;;3.10;72.59;100861.88;1759094;81;21005;-69
2023/12/28 02:07:42;;;;;;;8.10;2.42;;;;;;;3.09;72.35;100865.08;1759305;81;21060;-69
2023/12/28 02:10:11;;;;;;;5.95;1.90;;;;;;;3.10;71.95;100876.77;1748367;82;21065;-68
2023/12/28 02:12:39;;;;;;;6.03;2.50;;;;;;;3.09;71.97;100881.33;1748415;82;21002;-69
2023/12/28 02:15:09;;;;;;;7.00;2.40;;;;;;;3.10;71.80;100877.63;1759125;81;21053;-69
2023/12/28 02:18:16;;;;;;;9.05;2.45;;;;;;;3.08;71.88;100890.44;1748605;81;21010;-69
2023/12/28 02:20:45;;;;;;;5.22;2.22;;;;;;;3.06;71.96;100878.03;1748538;82;20979;-69
2023/12/28 02:23:13;;;;;;;6.00;2.20;;;;;;;3.05;72.03;100890.72;1748441;82;21069;-70
2023/12/28 02:25:44;;;;;;;7.50;2.55;;;;;;;3.04;72.05;100897.13;1748740;82;20990;-69
2023/12/28 02:28:13;;;;;;;6.55;2.20;;;;;;;3.01;71.85;100902.81;1758967;80;21041;-68
2023/12/28 02:30:41;;;;;;;8.05;2.27;;;;;;;2.97;71.64;100908.64;1759291;81;21026;-69
2023/12/28 02:33:26;;;;;;;6.40;2.20;;;;;;;2.98;71.72;100907.64;1759131;81;21065;-69
2023/12/28 02:36:11;;;;;;;6.15;2.15;;;;;;;2.99;71.62;100914.27;1748395;82;21467;-69
2023/12/28 02:38:39;;;;;;;9.10;3.22;;;;;;;2.97;71.78;100917.61;1759197;81;20997;-70
2023/12/28 02:41:08;;;;;;;6.05;2.60;;;;;;;2.98;71.74;100917.12;1748546;81;21062;-69
2023/12/28 02:43:36;;;;;;;8.30;2.92;;;;;;;2.97;71.70;100931.64;1748422;81;21446;-68
2023/12/28 02:46:05;;;;;;;8.33;3.00;;;;;;;2.92;71.69;100925.78;1759241;81;21037;-68
2023/12/28 02:48:34;;;;;;;8.85;2.85;;;;;;;2.90;71.70;100929.12;1758963;81;21068;-69
2023/12/28 02:51:05;;;;;;;5.00;2.12;;;;;;;2.85;71.63;100931.73;1748465;81;21021;-68
2023/12/28 02:53:34;;;;;;;7.17;2.20;;;;;;;2.86;71.81;100936.16;1758084;81;21129;-69
2023/12/28 02:56:03;;;;;;;6.53;2.20;;;;;;;2.90;71.97;100941.30;1756267;82;21475;-70
2023/12/28 02:58:31;;;;;;;5.97;2.60;;;;;;;2.92;72.05;100939.31;1756534;81;21010;-69
2023/12/28 03:01:00;;;;;;;7.40;3.12;;;;;;;2.92;71.85;100943.38;1756398;82;21049;-69
2023/12/28 03:03:29;;;;;;;10.60;3.22;;;;;;;2.86;71.87;100941.57;1756812;82;21507;-68
2023/12/28 03:05:58;;;;;;;9.03;3.20;;;;;;;2.85;71.88;100937.15;1756502;82;21057;-69
2023/12/28 03:08:27;;;;;;;7.92;2.60;;;;;;;2.85;71.94;100939.86;1756597;81;21480;-69
2023/12/28 03:10:55;;;;;;;8.38;3.02;;;;;;;2.84;71.91;100932.73;1756652;81;21002;-68
2023/12/28 03:13:24;;;;;;;8.00;2.20;;;;;;;2.83;72.02;100944.55;1756442;81;21025;-68
2023/12/28 03:15:52;;;;;;;11.68;3.98;;;;;;;2.83;71.95;100941.84;1756511;81;21021;-69
2023/12/28 03:18:20;;;;;;;11.50;4.25;;;;;;;2.83;71.90;100935.08;1756497;82;20986;-67
2023/12/28 03:20:50;;;;;;;9.80;3.98;;;;;;;2.83;71.99;100954.52;1756408;82;21402;-68
2023/12/28 03:23:18;;;;;;;10.95;3.80;;;;;;;2.82;72.03;100955.01;1756674;81;21065;-68
2023/12/28 03:25:46;;;;;;;10.95;4.83;;;;;;;2.81;71.84;100953.79;1756573;81;21394;-69
2023/12/28 03:28:15;;;;;;;10.40;4.60;;;;;;;2.77;71.80;100951.84;1756260;82;21061;-69
2023/12/28 03:30:43;;;;;;;7.58;3.05;;;;;;;2.78;71.92;100953.56;1756594;81;21479;-70
2023/12/28 03:33:12;;;;;;;5.35;2.42;;;;;;;2.75;72.02;100959.24;1756428;82;20965;-68
2023/12/28 03:35:42;;;;;;;8.65;2.90;;;;;;;2.76;72.00;100955.55;1756343;81;21080;-68
2023/12/28 03:38:12;;;;;;;5.45;2.55;;;;;;;2.77;71.99;100962.67;1756545;81;21002;-69
2023/12/28 03:40:41;;;;;;;8.10;3.12;;;;;;;2.77;71.86;100957.27;1756451;82;21021;-70
2023/12/28 03:43:10;;;;;;;9.18;4.15;;;;;;;2.74;72.01;100958.88;1756498;82;21064;-69
2023/12/28 03:45:38;;;;;;;7.87;3.75;;;;;;;2.74;72.06;100950.77;1756407;81;21448;-68
2023/12/28 03:48:07;;;;;;;11.65;4.20;;;;;;;2.71;72.04;100942.91;1756425;81;21014;-68
2023/12/28 03:50:36;;;;;;;6.85;3.25;;;;;;;2.67;72.09;100948.73;1756405;82;20993;-70
2023/12/28 03:53:04;;;;;;;9.30;2.90;;;;;;;2.64;72.17;100942.23;1756722;80;21045;-69
2023/12/28 03:55:33;;;;;;;10.75;3.02;;;;;;;2.63;72.14;100937.81;1759456;81;21029;-68
2023/12/28 03:58:02;;;;;;;7.33;3.30;;;;;;;2.61;72.05;100942.50;1748672;81;21002;-68
2023/12/28 04:00:31;;;;;;;7.90;3.50;;;;;;;2.57;72.17;100936.47;1759202;80;21488;-68
2023/12/28 04:02:59;;;;;;;7.20;2.95;;;;;;;2.54;72.23;100936.73;1759096;81;20990;-69
2023/12/28 04:05:28;;;;;;;9.90;4.10;;;;;;;2.52;72.24;100941.41;1748520;82;21018;-68
2023/12/28 04:08:00;;;;;;;7.20;3.10;;;;;;;2.50;72.41;100959.13;1748460;81;21061;-69
2023/12/28 04:10:32;;;;;;;6.85;3.50;;;;;;;2.47;72.26;100952.63;1748811;82;20974;-69
2023/12/28 04:13:00;;;;;;;9.70;3.47;;;;;;;2.45;72.30;100958.67;1759200;81;20958;-68
2023/12/28 04:15:30;;;;;;;8.55;3.65;;;;;;;2.45;72.47;100953.26;1759192;81;21013;-70
2023/12/28 04:17:59;;;;;;;8.70;3.62;;;;;;;2.48;72.47;100951.64;1748470;81;21010;-68
2023/12/28 04:20:30;;;;;;;14.13;3.83;;;;;;;2.44;72.48;100947.98;1759175;81;21025;-68
2023/12/28 04:22:58;;;;;;;9.70;4.05;;;;;;;2.43;72.63;100953.89;1759311;81;21116;-70
2023/12/28 04:25:26;;;;;;;7.62;3.90;;;;;;;2.41;72.70;100955.01;1759179;80;21037;-69
2023/12/28 04:27:55;;;;;;;11.88;4.45;;;;;;;2.35;72.73;100963.65;1743480;81;20990;-69
2023/12/28 04:30:24;;;;;;;11.50;4.55;;;;;;;2.31;72.85;100970.30;1759113;80;21509;-68
2023/12/28 04:32:52;;;;;;;13.68;5.50;;;;;;;2.25;73.04;100971.69;1748539;82;21018;-69
2023/12/28 04:35:21;;;;;;;10.18;4.25;;;;;;;2.23;73.10;100970.95;1748502;81;21057;-70
2023/12/28 04:37:50;;;;;;;11.45;3.92;;;;;;;2.22;73.10;100972.80;1748677;81;20974;-70
2023/12/28 04:40:18;;;;;;;10.50;4.33;;;;;;;2.19;73.21;100970.36;1759065;81;21037;-69
2023/12/28 04:42:47;;;;;;;12.07;4.60;;;;;;;2.17;73.30;100975.03;1759086;80;21061;-68
2023/12/28 04:45:15;;;;;;;10.40;3.95;;;;;;;2.16;73.36;100980.08;1748565;82;21004;-70
2023/12/28 04:47:44;;;;;;;10.13;4.00;;;;;;;2.13;73.44;100980.34;1759127;81;21001;-69
2023/12/28 04:50:12;;;;;;;9.20;4.05;;;;;;;2.12;73.50;100983.17;1759107;81;21025;-70
2023/12/28 04:52:41;;;;;;;15.55;6.33;;;;;;;2.05;73.48;100981.48;1759118;81;21589;-69
2023/12/28 04:55:11;;;;;;;17.10;5.87;;;;;;;2.01;73.60;100988.12;1759046;80;21031;-69
2023/12/28 04:57:42;;;;;;;18.35;6.65;;;;;;;2.00;73.63;100989.11;1748655;82;21033;-70
2023/12/28 05:00:12;;;;;;;17.92;6.08;;;;;;;2.00;73.69;100986.41;1748570;82;21037;-70
2023/12/28 05:02:41;;;;;;;13.55;5.45;;;;;;;1.99;73.79;100996.00;1759278;81;21060;-69
2023/12/28 05:05:12;;;;;;;11.63;4.47;;;;;;;1.98;73.89;100988.88;1759059;81;21021;-69
2023/12/28 05:07:42;;;;;;;11.18;4.97;;;;;;;1.97;73.76;100992.08;1752339;81;21049;-69
2023/12/28 05:10:10;;;;;;;16.10;5.97;;;;;;;1.96;73.85;100985.45;1748450;82;21026;-68
2023/12/28 05:12:39;;;;;;;11.95;4.97;;;;;;;1.92;73.92;100990.22;1752377;81;20990;-69
2023/12/28 05:15:10;;;;;;;14.50;5.33;;;;;;;1.88;73.97;100995.02;1748859;81;21039;-69
2023/12/28 05:17:38;;;;;;;16.20;7.10;;;;;;;1.82;74.20;100988.77;1748659;81;21050;-69
2023/12/28 05:20:09;;;;;;;28.25;10.90;;;;;;;1.81;74.51;100987.05;1748298;82;21045;-68
2023/12/28 05:22:37;;;;;;;22.62;11.22;;;;;;;1.83;74.62;100986.93;1759255;81;21041;-70
2023/12/28 05:25:07;;;;;;;20.43;9.90;;;;;;;1.82;74.78;100987.42;1748434;82;21050;-69
2023/12/28 05:27:35;;;;;;;25.90;11.12;;;;;;;1.78;74.80;100989.16;1759004;80;21454;-69
2023/12/28 05:30:05;;;;;;;20.17;8.30;;;;;;;1.71;74.89;100986.09;1748555;82;20998;-69
2023/12/28 05:32:35;;;;;;;18.02;7.08;;;;;;;1.64;75.14;100997.53;1759240;80;21610;-71
2023/12/28 05:35:05;;;;;;;16.35;6.70;;;;;;;1.61;75.32;100996.44;1728199;81;21025;-69
2023/12/28 05:37:34;;;;;;;14.75;6.05;;;;;;;1.57;75.45;100995.83;1748445;81;21049;-69
2023/12/28 05:40:02;;;;;;;22.05;7.60;;;;;;;1.53;75.61;100991.17;1719482;82;21009;-69
2023/12/28 05:42:31;;;;;;;17.82;7.72;;;;;;;1.47;75.62;100988.97;1759070;81;21458;-67
2023/12/28 05:45:00;;;;;;;14.75;6.75;;;;;;;1.46;75.78;100991.80;1748344;82;21034;-69
2023/12/28 05:47:28;;;;;;;23.67;9.08;;;;;;;1.48;75.94;100992.53;1748587;82;20970;-70
2023/12/28 05:49:57;;;;;;;21.52;8.40;;;;;;;1.50;75.96;100995.97;1759140;81;21010;-69
2023/12/28 05:52:26;;;;;;;20.20;6.90;;;;;;;1.49;75.83;100992.41;1748407;82;21638;-69
2023/12/28 05:54:56;;;;;;;14.33;6.20;;;;;;;1.49;75.94;100982.95;1701224;83;21079;-69
2023/12/28 05:57:29;;;;;;;15.18;5.83;;;;;;;1.51;76.00;100990.44;1713410;84;21089;-71
2023/12/28 05:59:55;;;;;;;16.90;6.10;;;;;;;1.47;76.04;100982.71;1713067;83;21506;-70
2023/12/28 06:02:24;;;;;;;14.33;6.03;;;;;;;1.39;76.18;100987.39;1713392;83;21055;-70
2023/12/28 06:04:52;;;;;;;14.20;7.22;;;;;;;1.39;76.40;100998.19;1713274;83;21067;-68
2023/12/28 06:07:21;;;;;;;15.43;7.03;;;;;;;1.35;76.47;100990.46;1713211;84;21671;-70
2023/12/28 06:09:50;;;;;;;18.70;7.47;;;;;;;1.32;76.62;100988.87;1713178;83;21106;-70
2023/12/28 06:12:19;;;;;;;16.42;6.92;;;;;;;1.23;76.82;100997.19;1713402;83;21122;-70
2023/12/28 06:14:48;;;;;;;17.07;6.90;;;;;;;1.19;77.05;101005.16;1713270;83;21055;-70
2023/12/28 06:17:18;;;;;;;21.40;8.00;;;;;;;1.16;77.28;101004.55;1713274;83;21079;-70
2023/12/28 06:19:47;;;;;;;19.37;8.33;;;;;;;1.16;77.50;101009.95;1713489;84;21067;-69
2023/12/28 06:22:15;;;;;;;19.52;7.67;;;;;;;1.15;77.68;101011.78;1713272;83;21086;-69
2023/12/28 06:24:44;;;;;;;23.30;7.40;;;;;;;1.19;77.87;101000.25;1713273;83;21078;-69
2023/12/28 06:27:12;;;;;;;22.73;8.25;;;;;;;1.21;77.98;100992.89;1713204;84;21475;-71
2023/12/28 06:29:41;;;;;;;21.68;8.70;;;;;;;1.25;78.13;100991.66;1713439;84;21086;-69
2023/12/28 06:32:09;;;;;;;20.35;8.20;;;;;;;1.28;78.16;101003.56;1687274;84;21455;-70
2023/12/28 06:34:38;;;;;;;24.07;8.38;;;;;;;1.34;78.23;101008.50;1713216;84;21206;-68
2023/12/28 06:37:06;;;;;;;19.98;8.63;;;;;;;1.38;78.17;101009.11;1713213;83;21458;-68
2023/12/28 06:39:35;;;;;;;29.20;9.45;;;;;;;1.41;78.13;101019.66;1713382;83;21050;-71
2023/12/28 06:42:04;;;;;;;27.65;9.40;;;;;;;1.38;78.20;101024.81;1713326;83;21086;-70
2023/12/28 06:44:33;;;;;;;19.45;8.50;;;;;;;1.37;78.45;101026.30;1713327;84;21114;-68
2023/12/28 06:47:01;;;;;;;18.45;8.10;;;;;;;1.34;78.54;101016.59;1713365;83;21039;-69
2023/12/28 06:49:30;;;;;;;22.50;7.60;;;;;;;1.36;78.75;101013.77;1687185;83;21104;-69
2023/12/28 06:51:58;;;;;;;27.80;8.45;;;;;;;1.41;78.75;101023.22;1713425;83;21038;-68
2023/12/28 06:54:26;;;;;;;22.07;8.90;;;;;;;1.45;78.80;101030.09;1721578;81;21418;-70
2023/12/28 06:56:55;;;;;;;21.45;7.97;;;;;;;1.51;78.84;101031.44;1748431;82;21037;-70
2023/12/28 06:59:24;;;;;;;14.45;6.60;;;;;;;1.54;78.76;101039.29;1759031;80;21137;-69
2023/12/28 07:01:53;;;;;;;14.93;6.03;;;;;;;1.55;78.69;101039.66;1759140;80;20990;-70
2023/12/28 07:04:22;;;;;;;24.10;7.10;;;;;;;1.57;78.45;101041.73;1743530;82;21018;-69
2023/12/28 07:06:50;;;;;;;20.37;7.37;;;;;;;1.57;78.48;101046.65;1759289;81;21013;-70
2023/12/28 07:09:19;;;;;;;14.93;6.37;;;;;;;1.62;78.54;101053.52;1748374;81;21006;-70
2023/12/28 07:11:47;;;;;;;17.37;7.00;;;;;;;1.64;78.59;101050.20;1759203;81;21046;-69
2023/12/28 07:14:16;;;;;;;16.80;7.40;;;;;;;1.68;78.71;101057.08;1748403;82;21053;-71
2023/12/28 07:16:45;;;;;;;14.47;7.10;;;;;;;1.70;78.79;101072.17;1759048;80;21017;-69
2023/12/28 07:19:13;;;;;;;18.95;7.10;;;;;;;1.75;78.86;101074.02;1759303;81;21100;-70
2023/12/28 07:21:42;;;;;;;17.90;6.92;;;;;;;1.77;78.90;101079.29;1748423;82;21014;-71
2023/12/28 07:24:11;;;;;;;15.15;7.15;;;;;;;1.81;79.06;101080.27;1759134;80;21480;-71
2023/12/28 07:26:40;;;;;;;23.10;9.40;;;;;;;1.87;79.03;101085.66;1748485;82;21041;-70
2023/12/28 07:29:09;;;;;;;19.85;7.05;;;;;;;1.94;79.04;101082.83;1759006;80;20997;-70
2023/12/28 07:31:37;;;;;;;15.32;7.35;;;;;;;1.98;78.89;101078.92;1748367;82;20994;-71
2023/12/28 07:34:06;;;;;;;17.95;7.28;;;;;;;2.00;78.86;101092.30;1759191;80;21007;-70
2023/12/28 07:36:35;;;;;;;20.02;7.50;;;;;;;2.03;78.95;101099.67;1752524;80;20994;-69
2023/12/28 07:39:04;;;;;;;15.85;6.22;;;;;;;2.05;78.83;101101.75;1728206;81;21026;-71
2023/12/28 07:41:32;;;;;;;17.15;6.55;;;;;;;2.08;78.71;101093.89;1743171;82;21014;-70
2023/12/28 07:44:00;;;;;;;16.15;6.55;;;;;;;2.11;78.50;101092.28;1748367;82;21690;-70
2023/12/28 07:46:29;;;;;;;21.80;7.47;;;;;;;2.11;78.43;101089.58;1748499;81;21096;-70
2023/12/28 07:48:58;;;;;;;18.25;7.60;;;;;;;2.13;78.43;101073.60;1759185;81;21036;-71
2023/12/28 07:51:26;;;;;;;20.82;7.35;;;;;;;2.19;78.54;101074.44;1759163;81;21001;-69
2023/12/28 07:53:55;;;;;;;17.87;7.75;;;;;;;2.34;78.46;101080.42;1759124;80;20982;-69
2023/12/28 07:56:24;;;;;;;14.00;6.78;;;;;;;2.44;78.08;101086.77;1758190;81;21057;-70
2023/12/28 07:58:52;;;;;;;19.75;8.58;;;;;;;2.59;77.76;101094.09;1736623;81;21036;-71
2023/12/28 08:01:22;;;;;;;27.93;8.68;;;;;;;2.78;77.39;101096.12;1760004;81;21033;-69
2023/12/28 08:03:50;;;;;;;15.80;6.85;;;;;;;2.98;76.24;101094.42;1761277;80;21029;-70
2023/12/28 08:06:19;;;;;;;18.25;7.28;;;;;;;3.11;75.51;101095.08;1759318;81;21061;-69
2023/12/28 08:08:48;;;;;;;23.92;8.90;;;;;;;3.22;74.74;101083.31;1733983;81;21009;-69
2023/12/28 08:11:16;;;;;;;15.30;7.00;;;;;;;3.24;74.38;101084.03;1758745;81;21018;-70
2023/12/28 08:13:45;;;;;;;14.65;6.58;;;;;;;3.27;74.20;101080.59;1710125;81;21462;-70
2023/12/28 08:16:14;;;;;;;14.98;6.62;;;;;;;3.32;74.00;101081.05;1759507;81;21542;-70
2023/12/28 08:18:44;;;;;;;15.13;7.28;;;;;;;3.35;73.57;101084.84;1759521;81;21060;-71
2023/12/28 08:21:13;;;;;;;19.75;7.03;;;;;;;3.33;73.31;101089.53;1759342;81;21049;-71
2023/12/28 08:23:42;;;;;;;14.18;6.40;;;;;;;3.32;73.32;101081.05;1759475;81;21010;-70
2023/12/28 08:26:10;;;;;;;17.55;5.97;;;;;;;3.30;73.28;101071.34;1759515;81;21005;-70
2023/12/28 08:28:40;;;;;;;12.28;6.83;;;;;;;3.28;73.14;101066.56;1759573;81;20990;-70
2023/12/28 08:31:08;;;;;;;16.93;7.30;;;;;;;3.22;73.06;101062.50;1759452;81;20969;-71
2023/12/28 08:33:39;;;;;;;16.42;8.25;;;;;;;3.18;73.23;101065.98;1759365;81;20986;-70
2023/12/28 08:36:09;;;;;;;20.30;8.18;;;;;;;3.14;72.96;101059.11;1759322;81;21033;-71
2023/12/28 08:38:38;;;;;;;18.42;7.90;;;;;;;3.07;72.98;101061.14;1759482;81;21017;-71
2023/12/28 08:41:08;;;;;;;18.87;8.05;;;;;;;3.01;73.20;101061.67;1759329;81;20973;-71
2023/12/28 08:43:37;;;;;;;15.28;6.75;;;;;;;3.01;73.66;101067.08;1759368;81;21150;-71
2023/12/28 08:46:08;;;;;;;14.40;7.15;;;;;;;3.01;73.91;101066.59;1759562;81;21057;-70
2023/12/28 08:48:37;;;;;;;14.98;7.28;;;;;;;3.03;73.89;101072.73;1759469;81;20962;-71
2023/12/28 08:51:06;;;;;;;16.48;7.03;;;;;;;3.05;73.82;101072.59;1759377;81;20998;-70
2023/12/28 08:53:34;;;;;;;16.30;6.10;;;;;;;3.06;73.81;101064.83;1759351;81;21052;-71
2023/12/28 08:56:03;;;;;;;13.35;6.28;;;;;;;3.03;73.74;101064.61;1752997;81;21466;-72
2023/12/28 08:58:32;;;;;;;11.48;5.62;;;;;;;3.01;73.88;101053.55;1735068;80;21017;-70
2023/12/28 09:01:01;;;;;;;14.70;6.25;;;;;;;2.97;73.97;101051.60;1749054;80;21096;-75
2023/12/28 09:03:30;;;;;;;16.77;6.70;;;;;;;2.97;74.97;101054.80;1759075;80;21482;-73
2023/12/28 09:05:59;;;;;;;21.77;8.35;;;;;;;3.03;75.24;101055.13;1735790;82;21029;-74
2023/12/28 09:08:27;;;;;;;16.00;6.40;;;;;;;3.09;75.16;101038.34;1699702;82;21093;-75
2023/12/28 09:10:56;;;;;;;12.00;6.12;;;;;;;3.13;74.99;101026.26;1750494;82;21065;-72
2023/12/28 09:13:25;;;;;;;12.18;5.80;;;;;;;3.18;74.89;101013.67;1751277;82;21064;-72
2023/12/28 09:15:54;;;;;;;14.13;6.92;;;;;;;3.19;74.76;101023.02;1760867;80;21029;-74
2023/12/28 09:18:23;;;;;;;14.38;6.00;;;;;;;3.22;74.68;101030.50;1782263;80;21501;-75
2023/12/28 09:20:51;;;;;;;21.25;7.55;;;;;;;3.26;75.06;101030.63;1732214;80;21465;-72
2023/12/28 09:23:20;;;;;;;16.87;6.95;;;;;;;3.30;75.01;101020.74;1782231;80;21087;-75
2023/12/28 09:25:49;;;;;;;17.75;6.92;;;;;;;3.36;75.26;101017.98;1782267;80;21013;-73
2023/12/28 09:28:17;;;;;;;17.20;6.60;;;;;;;3.40;75.19;101017.58;1732395;80;21492;-74
2023/12/28 09:30:46;;;;;;;17.90;6.97;;;;;;;3.43;74.77;101020.52;1782178;80;21425;-74
2023/12/28 09:33:16;;;;;;;17.55;6.70;;;;;;;3.43;74.65;101009.18;1761499;79;21478;-73
2023/12/28 09:35:44;;;;;;;20.48;7.47;;;;;;;3.38;74.15;100997.90;1733370;82;21061;-74
2023/12/28 09:38:15;;;;;;;20.10;6.72;;;;;;;3.36;74.13;101009.36;1735969;81;21041;-75
2023/12/28 09:40:43;;;;;;;15.95;6.20;;;;;;;3.36;74.14;101001.73;1735929;83;21172;-74
2023/12/28 09:43:18;;;;;;;19.62;6.92;;;;;;;3.36;74.30;100994.47;1735903;83;21010;-74
2023/12/28 09:45:49;;;;;;;15.18;6.90;;;;;;;3.38;74.43;100985.70;1736024;82;21069;-70
2023/12/28 09:48:20;;;;;;;16.37;7.28;;;;;;;3.41;74.51;100980.02;1735574;82;21020;-72
2023/12/28 09:50:54;;;;;;;19.20;7.03;;;;;;;3.43;74.28;100983.94;1721415;83;21067;-72
2023/12/28 09:53:24;;;;;;;13.95;6.62;;;;;;;3.43;74.11;100983.94;1721475;83;21044;-74
2023/12/28 09:55:53;;;;;;;20.20;7.70;;;;;;;3.41;74.06;100981.38;1720122;83;21068;-74
2023/12/28 09:58:22;;;;;;;12.37;5.70;;;;;;;3.42;74.07;100976.81;1728813;83;21046;-74
2023/12/28 10:00:51;;;;;;;15.75;5.50;;;;;;;3.42;74.08;100968.69;1746395;81;21517;-74
2023/12/28 10:03:20;;;;;;;17.85;7.97;;;;;;;3.44;74.30;100966.70;1718509;82;21009;-74
2023/12/28 10:05:49;;;;;;;16.57;7.05;;;;;;;3.47;74.37;100967.28;1713884;83;21464;-73
2023/12/28 10:08:17;;;;;;;21.37;8.40;;;;;;;3.52;74.41;100956.52;1748198;82;21064;-74
2023/12/28 10:10:50;;;;;;;20.43;7.85;;;;;;;3.57;74.40;100951.54;1753073;82;21017;-74
2023/12/28 10:13:17;;;;;;;24.05;9.10;;;;;;;3.63;74.26;100945.56;1752892;81;21053;-74
2023/12/28 10:15:46;;;;;;;24.30;9.10;;;;;;;3.67;74.18;100938.87;1700044;82;21464;-72
2023/12/28 10:18:14;;;;;;;21.95;8.03;;;;;;;3.69;74.00;100935.52;1750427;82;21147;-73
2023/12/28 10:20:43;;;;;;;17.95;8.28;;;;;;;3.74;74.59;100935.45;1750524;82;21104;-73
2023/12/28 10:23:12;;;;;;;23.85;9.55;;;;;;;3.76;74.29;100921.27;1747696;82;21045;-72
2023/12/28 10:25:40;;;;;;;19.42;9.10;;;;;;;3.77;73.92;100920.77;1750406;82;21112;-73
2023/12/28 10:28:12;;;;;;;14.28;7.03;;;;;;;3.78;74.07;100925.19;1750333;81;21060;-74
2023/12/28 10:30:41;;;;;;;17.10;7.75;;;;;;;3.78;73.26;100927.41;1723922;82;21063;-73
2023/12/28 10:33:09;;;;;;;15.80;6.97;;;;;;;3.78;73.02;100923.83;1750284;82;21112;-73
2023/12/28 10:35:39;;;;;;;14.28;6.78;;;;;;;3.80;73.00;100920.48;1750434;82;21064;-73
2023/12/28 10:38:07;;;;;;;13.78;5.40;;;;;;;3.83;73.16;100925.63;1750340;81;21048;-74
2023/12/28 10:40:38;;;;;;;19.23;6.00;;;;;;;3.85;72.84;100915.49;1750241;82;21472;-72
2023/12/28 10:43:07;;;;;;;12.07;5.80;;;;;;;3.88;72.70;100904.86;1750240;82;20997;-74
2023/12/28 10:45:38;;;;;;;13.22;5.85;;;;;;;3.90;72.37;100901.05;1750250;81;21124;-72
2023/12/28 10:48:13;;;;;;;15.68;5.87;;;;;;;3.91;72.01;100890.56;1750687;82;21076;-74
2023/12/28 10:50:47;;;;;;;14.30;5.37;;;;;;;3.95;71.98;100897.41;1750197;82;21100;-74
2023/12/28 10:53:51;;;;;;;19.92;5.53;;;;;;;3.98;71.73;100884.92;1750121;82;21029;-73
2023/12/28 10:56:38;;;;;;;11.88;5.47;;;;;;;4.02;71.54;100875.50;1688833;84;21506;-73
2023/12/28 10:59:22;;;;;;;;;;;;;;;4.10;71.31;100875.63;1698405;84;21071;-72
2023/12/28 11:01:52;;;;;;;21.33;6.33;;;;;;;4.16;70.85;100881.48;1695878;84;20216;-73
2023/12/28 11:04:50;;;;;;;15.08;5.33;;;;;;;4.17;70.40;100873.70;1695865;84;21507;-73
2023/12/28 11:07:19;;;;;;;16.35;6.28;;;;;;;4.20;70.28;100867.48;1693768;84;21140;-74
2023/12/28 11:09:48;;;;;;;13.48;6.30;;;;;;;4.25;69.79;100873.83;1667703;84;21033;-74
2023/12/28 11:12:19;;;;;;;16.95;6.90;;;;;;;4.28;69.61;100870.83;1690753;84;21487;-74
2023/12/28 11:14:50;;;;;;;13.62;5.45;;;;;;;4.33;69.42;100868.53;1690430;85;21016;-73
2023/12/28 11:17:19;;;;;;;13.60;5.40;;;;;;;4.41;70.41;100863.23;1690762;84;21044;-74
2023/12/28 11:19:48;;;;;;;11.57;5.10;;;;;;;4.43;69.49;100855.30;1690582;85;21013;-74
2023/12/28 11:22:16;;;;;;;10.88;4.67;;;;;;;4.46;69.31;100844.66;1690813;85;21029;-73
2023/12/28 11:24:45;;;;;;;10.35;4.00;;;;;;;4.49;69.10;100833.50;1690349;85;21099;-72
2023/12/28 11:27:13;;;;;;;12.20;4.50;;;;;;;4.51;68.50;100823.36;1703067;81;21082;-74
2023/12/28 11:29:44;;;;;;;11.40;4.50;;;;;;;4.51;68.36;100815.22;1759504;81;20991;-74
2023/12/28 11:32:13;;;;;;;18.80;6.67;;;;;;;4.52;68.29;100808.78;1759448;81;21031;-74
2023/12/28 11:34:41;;;;;;;15.00;7.20;;;;;;;4.52;68.12;100803.36;1704837;84;21497;-74
2023/12/28 11:37:18;;;;;;;15.72;6.65;;;;;;;4.56;68.15;100802.59;1759126;81;21051;-74
2023/12/28 11:39:47;;;;;;;17.95;6.05;;;;;;;4.58;68.06;100785.66;1707385;82;21044;-73